sensor_id;sensor_type;location;lat;lon;timestamp;P1;durP1;ratioP1;P2;durP2;ratioP2
63379;SDS011;53160;55.014;73.156;2023-02-03T00:01:15;86.50;;;54.50;;
63379;SDS011;53160;55.014;73.156;2023-02-03T00:03:51;119.00;;;79.75;;
63379;SDS011;53160;55.014;73.156;2023-02-03T00:06:18;111.25;;;74.50;;
63379;SDS011;53160;55.014;73.156;2023-02-03T00:08:44;128.75;;;80.50;;
63379;SDS011;53160;55.014;73.156;2023-02-03T00:11:10;116.75;;;83.00;;
63379;SDS011;53160;55.014;73.156;2023-02-03T00:13:36;88.00;;;69.00;;
63379;SDS011;53160;55.014;73.156;2023-02-03T00:16:12;80.50;;;65.25;;
63379;SDS011;53160;55.014;73.156;2023-02-03T00:18:39;107.25;;;74.25;;
63379;SDS011;53160;55.014;73.156;2023-02-03T00:21:05;112.50;;;79.50;;
63379;SDS011;53160;55.014;73.156;2023-02-03T00:23:36;106.00;;;74.00;;
63379;SDS011;53160;55.014;73.156;2023-02-03T00:26:06;114.00;;;79.25;;
63379;SDS011;53160;55.014;73.156;2023-02-03T00:28:32;113.50;;;78.75;;
63379;SDS011;53160;55.014;73.156;2023-02-03T00:30:58;107.25;;;74.50;;
63379;SDS011;53160;55.014;73.156;2023-02-03T00:33:34;114.75;;;77.75;;
63379;SDS011;53160;55.014;73.156;2023-02-03T00:36:06;115.00;;;81.75;;
63379;SDS011;53160;55.014;73.156;2023-02-03T00:38:32;87.50;;;66.50;;
63379;SDS011;53160;55.014;73.156;2023-02-03T00:40:58;111.50;;;78.00;;
63379;SDS011;53160;55.014;73.156;2023-02-03T00:43:25;86.25;;;49.50;;
63379;SDS011;53160;55.014;73.156;2023-02-03T00:45:52;113.00;;;77.00;;
63379;SDS011;53160;55.014;73.156;2023-02-03T00:48:29;81.33;;;66.00;;
63379;SDS011;53160;55.014;73.156;2023-02-03T00:51:05;119.67;;;81.33;;
63379;SDS011;53160;55.014;73.156;2023-02-03T00:53:31;111.50;;;78.00;;
63379;SDS011;53160;55.014;73.156;2023-02-03T00:55:57;104.75;;;70.00;;
63379;SDS011;53160;55.014;73.156;2023-02-03T00:58:23;108.25;;;74.00;;
63379;SDS011;53160;55.014;73.156;2023-02-03T01:00:49;91.50;;;58.75;;
63379;SDS011;53160;55.014;73.156;2023-02-03T01:03:23;116.75;;;78.25;;
63379;SDS011;53160;55.014;73.156;2023-02-03T01:05:49;102.50;;;73.75;;
63379;SDS011;53160;55.014;73.156;2023-02-03T01:08:15;105.00;;;69.00;;
63379;SDS011;53160;55.014;73.156;2023-02-03T01:10:52;107.50;;;76.00;;
63379;SDS011;53160;55.014;73.156;2023-02-03T01:13:18;105.50;;;74.25;;
63379;SDS011;53160;55.014;73.156;2023-02-03T01:15:45;92.50;;;59.00;;
63379;SDS011;53160;55.014;73.156;2023-02-03T01:18:12;85.75;;;64.00;;
63379;SDS011;53160;55.014;73.156;2023-02-03T01:20:48;89.75;;;66.00;;
63379;SDS011;53160;55.014;73.156;2023-02-03T01:23:15;93.25;;;65.00;;
63379;SDS011;53160;55.014;73.156;2023-02-03T01:25:41;91.50;;;64.25;;
63379;SDS011;53160;55.014;73.156;2023-02-03T01:28:12;93.00;;;64.25;;
63379;SDS011;53160;55.014;73.156;2023-02-03T01:30:48;98.50;;;65.50;;
63379;SDS011;53160;55.014;73.156;2023-02-03T01:33:24;88.50;;;61.00;;
63379;SDS011;53160;55.014;73.156;2023-02-03T01:35:50;94.00;;;67.00;;
63379;SDS011;53160;55.014;73.156;2023-02-03T01:38:17;93.25;;;66.00;;
63379;SDS011;53160;55.014;73.156;2023-02-03T01:40:43;64.00;;;53.75;;
63379;SDS011;53160;55.014;73.156;2023-02-03T01:43:09;104.50;;;72.50;;
63379;SDS011;53160;55.014;73.156;2023-02-03T01:45:36;98.75;;;65.75;;
63379;SDS011;53160;55.014;73.156;2023-02-03T01:48:04;86.75;;;65.50;;
63379;SDS011;53160;55.014;73.156;2023-02-03T01:50:32;113.25;;;81.25;;
63379;SDS011;53160;55.014;73.156;2023-02-03T01:53:09;109.75;;;75.75;;
63379;SDS011;53160;55.014;73.156;2023-02-03T01:55:43;136.00;;;88.00;;
63379;SDS011;53160;55.014;73.156;2023-02-03T01:58:12;114.75;;;78.50;;
63379;SDS011;53160;55.014;73.156;2023-02-03T02:00:41;112.67;;;80.67;;
63379;SDS011;53160;55.014;73.156;2023-02-03T02:03:19;114.25;;;77.00;;
63379;SDS011;53160;55.014;73.156;2023-02-03T02:05:49;101.75;;;71.50;;
63379;SDS011;53160;55.014;73.156;2023-02-03T02:08:17;108.25;;;74.25;;
63379;SDS011;53160;55.014;73.156;2023-02-03T02:10:44;110.50;;;78.00;;
63379;SDS011;53160;55.014;73.156;2023-02-03T02:13:16;113.00;;;80.25;;
63379;SDS011;53160;55.014;73.156;2023-02-03T02:18:23;117.75;;;84.75;;
63379;SDS011;53160;55.014;73.156;2023-02-03T02:26:25;87.25;;;54.75;;
63379;SDS011;53160;55.014;73.156;2023-02-03T02:29:02;99.50;;;76.25;;
63379;SDS011;53160;55.014;73.156;2023-02-03T02:36:55;110.00;;;76.75;;
63379;SDS011;53160;55.014;73.156;2023-02-03T02:44:45;103.50;;;70.25;;
63379;SDS011;53160;55.014;73.156;2023-02-03T02:47:25;115.00;;;74.00;;
63379;SDS011;53160;55.014;73.156;2023-02-03T02:52:30;105.75;;;74.50;;
63379;SDS011;53160;55.014;73.156;2023-02-03T02:55:00;93.75;;;62.50;;
63379;SDS011;53160;55.014;73.156;2023-02-03T02:57:27;94.75;;;67.50;;
63379;SDS011;53160;55.014;73.156;2023-02-03T02:59:55;99.50;;;66.75;;
63379;SDS011;53160;55.014;73.156;2023-02-03T03:02:30;91.75;;;64.25;;
63379;SDS011;53160;55.014;73.156;2023-02-03T03:04:56;82.75;;;56.75;;
63379;SDS011;53160;55.014;73.156;2023-02-03T03:07:23;111.00;;;75.00;;
63379;SDS011;53160;55.014;73.156;2023-02-03T03:09:57;105.25;;;68.75;;
63379;SDS011;53160;55.014;73.156;2023-02-03T03:12:28;98.00;;;73.75;;
63379;SDS011;53160;55.014;73.156;2023-02-03T03:15:04;97.75;;;68.00;;
63379;SDS011;53160;55.014;73.156;2023-02-03T03:17:34;107.00;;;72.00;;
63379;SDS011;53160;55.014;73.156;2023-02-03T03:20:06;101.75;;;67.75;;
63379;SDS011;53160;55.014;73.156;2023-02-03T03:22:36;109.50;;;78.00;;
63379;SDS011;53160;55.014;73.156;2023-02-03T03:25:16;118.75;;;84.00;;
63379;SDS011;53160;55.014;73.156;2023-02-03T03:27:49;116.25;;;79.75;;
63379;SDS011;53160;55.014;73.156;2023-02-03T03:30:36;106.25;;;76.00;;
63379;SDS011;53160;55.014;73.156;2023-02-03T03:33:04;101.25;;;73.00;;
63379;SDS011;53160;55.014;73.156;2023-02-03T03:35:35;115.67;;;82.67;;
63379;SDS011;53160;55.014;73.156;2023-02-03T03:38:38;139.25;;;100.50;;
63379;SDS011;53160;55.014;73.156;2023-02-03T03:41:26;106.00;;;75.00;;
63379;SDS011;53160;55.014;73.156;2023-02-03T03:43:49;111.67;;;75.33;;
63379;SDS011;53160;55.014;73.156;2023-02-03T03:46:21;111.33;;;78.33;;
63379;SDS011;53160;55.014;73.156;2023-02-03T03:49:02;92.00;;;66.00;;
63379;SDS011;53160;55.014;73.156;2023-02-03T03:51:37;95.50;;;73.50;;
63379;SDS011;53160;55.014;73.156;2023-02-03T03:54:06;105.50;;;76.00;;
63379;SDS011;53160;55.014;73.156;2023-02-03T03:56:38;116.00;;;86.50;;
63379;SDS011;53160;55.014;73.156;2023-02-03T03:59:06;107.33;;;73.67;;
63379;SDS011;53160;55.014;73.156;2023-02-03T04:01:43;106.75;;;70.25;;
63379;SDS011;53160;55.014;73.156;2023-02-03T04:04:10;111.00;;;75.75;;
63379;SDS011;53160;55.014;73.156;2023-02-03T04:06:46;120.00;;;91.33;;
63379;SDS011;53160;55.014;73.156;2023-02-03T04:09:23;143.00;;;108.75;;
63379;SDS011;53160;55.014;73.156;2023-02-03T04:11:54;149.25;;;102.00;;
63379;SDS011;53160;55.014;73.156;2023-02-03T04:14:30;123.75;;;92.50;;
63379;SDS011;53160;55.014;73.156;2023-02-03T04:16:58;146.50;;;102.75;;
63379;SDS011;53160;55.014;73.156;2023-02-03T04:19:25;134.25;;;95.25;;
63379;SDS011;53160;55.014;73.156;2023-02-03T04:21:52;158.25;;;109.00;;
63379;SDS011;53160;55.014;73.156;2023-02-03T04:24:18;115.25;;;89.25;;
63379;SDS011;53160;55.014;73.156;2023-02-03T04:26:49;149.25;;;109.50;;
63379;SDS011;53160;55.014;73.156;2023-02-03T04:29:16;138.50;;;98.50;;
63379;SDS011;53160;55.014;73.156;2023-02-03T04:31:42;123.00;;;93.00;;
63379;SDS011;53160;55.014;73.156;2023-02-03T04:34:19;127.50;;;108.00;;
63379;SDS011;53160;55.014;73.156;2023-02-03T04:36:45;141.67;;;98.67;;
63379;SDS011;53160;55.014;73.156;2023-02-03T04:39:11;84.25;;;63.50;;
63379;SDS011;53160;55.014;73.156;2023-02-03T04:41:47;82.75;;;54.75;;
63379;SDS011;53160;55.014;73.156;2023-02-03T04:44:13;86.75;;;60.00;;
63379;SDS011;53160;55.014;73.156;2023-02-03T04:46:45;99.75;;;69.00;;
63379;SDS011;53160;55.014;73.156;2023-02-03T04:49:15;95.25;;;66.00;;
63379;SDS011;53160;55.014;73.156;2023-02-03T04:51:42;88.50;;;62.75;;
63379;SDS011;53160;55.014;73.156;2023-02-03T04:54:11;86.00;;;63.25;;
63379;SDS011;53160;55.014;73.156;2023-02-03T04:56:42;91.75;;;65.00;;
63379;SDS011;53160;55.014;73.156;2023-02-03T04:59:08;79.00;;;52.50;;
63379;SDS011;53160;55.014;73.156;2023-02-03T05:01:34;91.25;;;67.00;;
63379;SDS011;53160;55.014;73.156;2023-02-03T05:04:00;101.75;;;72.75;;
63379;SDS011;53160;55.014;73.156;2023-02-03T05:06:27;89.25;;;66.00;;
63379;SDS011;53160;55.014;73.156;2023-02-03T05:08:54;94.00;;;65.00;;
63379;SDS011;53160;55.014;73.156;2023-02-03T05:11:25;63.00;;;45.75;;
63379;SDS011;53160;55.014;73.156;2023-02-03T05:13:51;73.60;;;55.40;;
63379;SDS011;53160;55.014;73.156;2023-02-03T05:16:18;71.40;;;51.20;;
63379;SDS011;53160;55.014;73.156;2023-02-03T05:18:50;75.20;;;57.20;;
63379;SDS011;53160;55.014;73.156;2023-02-03T05:21:16;73.20;;;53.40;;
63379;SDS011;53160;55.014;73.156;2023-02-03T05:23:42;69.20;;;49.60;;
63379;SDS011;53160;55.014;73.156;2023-02-03T05:26:08;80.60;;;59.80;;
63379;SDS011;53160;55.014;73.156;2023-02-03T05:28:45;71.60;;;53.20;;
63379;SDS011;53160;55.014;73.156;2023-02-03T05:31:16;79.75;;;61.00;;
63379;SDS011;53160;55.014;73.156;2023-02-03T05:33:53;84.60;;;61.00;;
63379;SDS011;53160;55.014;73.156;2023-02-03T05:36:29;88.60;;;63.40;;
63379;SDS011;53160;55.014;73.156;2023-02-03T05:39:00;95.20;;;67.40;;
63379;SDS011;53160;55.014;73.156;2023-02-03T05:41:26;78.80;;;59.00;;
63379;SDS011;53160;55.014;73.156;2023-02-03T05:44:15;78.60;;;61.00;;
63379;SDS011;53160;55.014;73.156;2023-02-03T05:46:41;81.00;;;60.75;;
63379;SDS011;53160;55.014;73.156;2023-02-03T05:49:17;73.00;;;58.00;;
63379;SDS011;53160;55.014;73.156;2023-02-03T05:51:49;86.40;;;65.40;;
63379;SDS011;53160;55.014;73.156;2023-02-03T05:54:16;90.20;;;64.00;;
63379;SDS011;53160;55.014;73.156;2023-02-03T05:56:42;91.20;;;67.20;;
63379;SDS011;53160;55.014;73.156;2023-02-03T05:59:08;90.40;;;67.80;;
63379;SDS011;53160;55.014;73.156;2023-02-03T06:01:34;71.60;;;59.20;;
63379;SDS011;53160;55.014;73.156;2023-02-03T06:04:01;95.00;;;66.40;;
63379;SDS011;53160;55.014;73.156;2023-02-03T06:06:29;111.75;;;82.50;;
63379;SDS011;53160;55.014;73.156;2023-02-03T06:08:59;167.67;;;122.67;;
63379;SDS011;53160;55.014;73.156;2023-02-03T06:11:25;145.50;;;106.75;;
63379;SDS011;53160;55.014;73.156;2023-02-03T06:14:02;115.00;;;81.25;;
63379;SDS011;53160;55.014;73.156;2023-02-03T06:16:28;93.00;;;68.00;;
63379;SDS011;53160;55.014;73.156;2023-02-03T06:18:55;86.80;;;61.20;;
63379;SDS011;53160;55.014;73.156;2023-02-03T06:21:25;73.00;;;55.40;;
63379;SDS011;53160;55.014;73.156;2023-02-03T06:23:51;81.60;;;61.00;;
63379;SDS011;53160;55.014;73.156;2023-02-03T06:26:18;73.80;;;56.60;;
63379;SDS011;53160;55.014;73.156;2023-02-03T06:28:44;73.40;;;58.20;;
63379;SDS011;53160;55.014;73.156;2023-02-03T06:31:10;71.00;;;53.40;;
63379;SDS011;53160;55.014;73.156;2023-02-03T06:33:42;78.00;;;59.20;;
63379;SDS011;53160;55.014;73.156;2023-02-03T06:36:08;71.00;;;50.20;;
63379;SDS011;53160;55.014;73.156;2023-02-03T06:38:36;78.80;;;59.00;;
63379;SDS011;53160;55.014;73.156;2023-02-03T06:41:13;79.80;;;57.60;;
63379;SDS011;53160;55.014;73.156;2023-02-03T06:43:39;74.20;;;54.40;;
63379;SDS011;53160;55.014;73.156;2023-02-03T06:46:05;89.00;;;68.20;;
63379;SDS011;53160;55.014;73.156;2023-02-03T06:48:32;79.20;;;63.20;;
63379;SDS011;53160;55.014;73.156;2023-02-03T06:50:58;78.40;;;59.20;;
63379;SDS011;53160;55.014;73.156;2023-02-03T06:53:24;72.80;;;56.20;;
63379;SDS011;53160;55.014;73.156;2023-02-03T06:55:50;46.80;;;45.00;;
63379;SDS011;53160;55.014;73.156;2023-02-03T06:58:26;91.50;;;65.75;;
63379;SDS011;53160;55.014;73.156;2023-02-03T07:00:55;79.40;;;60.20;;
63379;SDS011;53160;55.014;73.156;2023-02-03T07:03:26;124.50;;;107.25;;
63379;SDS011;53160;55.014;73.156;2023-02-03T07:05:52;102.00;;;77.75;;
63379;SDS011;53160;55.014;73.156;2023-02-03T07:08:18;91.25;;;69.75;;
63379;SDS011;53160;55.014;73.156;2023-02-03T07:10:44;90.75;;;69.00;;
63379;SDS011;53160;55.014;73.156;2023-02-03T07:13:11;107.00;;;77.00;;
63379;SDS011;53160;55.014;73.156;2023-02-03T07:15:37;105.00;;;82.00;;
63379;SDS011;53160;55.014;73.156;2023-02-03T07:18:03;113.75;;;90.00;;
63379;SDS011;53160;55.014;73.156;2023-02-03T07:20:29;109.75;;;83.00;;
63379;SDS011;53160;55.014;73.156;2023-02-03T07:22:57;102.75;;;76.00;;
63379;SDS011;53160;55.014;73.156;2023-02-03T07:25:23;101.25;;;78.50;;
63379;SDS011;53160;55.014;73.156;2023-02-03T07:27:54;74.75;;;58.00;;
63379;SDS011;53160;55.014;73.156;2023-02-03T07:30:20;82.20;;;60.00;;
63379;SDS011;53160;55.014;73.156;2023-02-03T07:32:56;78.00;;;60.40;;
63379;SDS011;53160;55.014;73.156;2023-02-03T07:35:23;75.80;;;57.80;;
63379;SDS011;53160;55.014;73.156;2023-02-03T07:38:00;75.80;;;54.40;;
63379;SDS011;53160;55.014;73.156;2023-02-03T07:40:26;85.40;;;64.20;;
63379;SDS011;53160;55.014;73.156;2023-02-03T07:42:52;83.20;;;60.60;;
63379;SDS011;53160;55.014;73.156;2023-02-03T07:45:19;73.80;;;58.00;;
63379;SDS011;53160;55.014;73.156;2023-02-03T07:47:46;79.40;;;63.40;;
63379;SDS011;53160;55.014;73.156;2023-02-03T07:50:23;80.00;;;63.40;;
63379;SDS011;53160;55.014;73.156;2023-02-03T07:52:50;79.40;;;62.60;;
63379;SDS011;53160;55.014;73.156;2023-02-03T07:55:16;71.60;;;56.20;;
63379;SDS011;53160;55.014;73.156;2023-02-03T07:57:43;81.60;;;63.80;;
63379;SDS011;53160;55.014;73.156;2023-02-03T08:00:11;78.80;;;61.20;;
63379;SDS011;53160;55.014;73.156;2023-02-03T08:02:48;80.60;;;60.20;;
63379;SDS011;53160;55.014;73.156;2023-02-03T08:05:15;75.20;;;58.40;;
63379;SDS011;53160;55.014;73.156;2023-02-03T08:07:41;80.60;;;62.80;;
63379;SDS011;53160;55.014;73.156;2023-02-03T08:10:08;67.00;;;48.00;;
63379;SDS011;53160;55.014;73.156;2023-02-03T08:12:34;77.60;;;56.20;;
63379;SDS011;53160;55.014;73.156;2023-02-03T08:15:00;80.60;;;61.60;;
63379;SDS011;53160;55.014;73.156;2023-02-03T08:17:26;72.80;;;56.80;;
63379;SDS011;53160;55.014;73.156;2023-02-03T08:19:53;77.40;;;62.60;;
63379;SDS011;53160;55.014;73.156;2023-02-03T08:22:19;80.80;;;63.40;;
63379;SDS011;53160;55.014;73.156;2023-02-03T08:24:55;72.60;;;57.80;;
63379;SDS011;53160;55.014;73.156;2023-02-03T08:27:21;86.60;;;65.20;;
63379;SDS011;53160;55.014;73.156;2023-02-03T08:29:48;79.40;;;60.40;;
63379;SDS011;53160;55.014;73.156;2023-02-03T08:32:18;86.20;;;66.60;;
63379;SDS011;53160;55.014;73.156;2023-02-03T08:34:44;79.40;;;63.60;;
63379;SDS011;53160;55.014;73.156;2023-02-03T08:37:21;90.00;;;66.00;;
63379;SDS011;53160;55.014;73.156;2023-02-03T08:39:57;97.00;;;75.60;;
63379;SDS011;53160;55.014;73.156;2023-02-03T08:42:24;89.00;;;67.20;;
63379;SDS011;53160;55.014;73.156;2023-02-03T08:44:50;92.60;;;70.00;;
63379;SDS011;53160;55.014;73.156;2023-02-03T08:47:16;177.67;;;149.67;;
63379;SDS011;53160;55.014;73.156;2023-02-03T08:49:43;100.40;;;83.80;;
63379;SDS011;53160;55.014;73.156;2023-02-03T08:52:11;68.40;;;53.60;;
63379;SDS011;53160;55.014;73.156;2023-02-03T08:54:47;73.20;;;57.60;;
63379;SDS011;53160;55.014;73.156;2023-02-03T08:57:13;82.20;;;66.80;;
63379;SDS011;53160;55.014;73.156;2023-02-03T08:59:41;69.40;;;56.40;;
63379;SDS011;53160;55.014;73.156;2023-02-03T09:02:10;45.60;;;39.00;;
63379;SDS011;53160;55.014;73.156;2023-02-03T09:04:47;38.60;;;36.20;;
63379;SDS011;53160;55.014;73.156;2023-02-03T09:07:14;26.20;;;24.80;;
63379;SDS011;53160;55.014;73.156;2023-02-03T09:09:41;36.20;;;32.40;;
63379;SDS011;53160;55.014;73.156;2023-02-03T09:12:07;34.00;;;33.00;;
63379;SDS011;53160;55.014;73.156;2023-02-03T09:14:35;15.60;;;13.80;;
63379;SDS011;53160;55.014;73.156;2023-02-03T09:17:11;31.00;;;23.40;;
63379;SDS011;53160;55.014;73.156;2023-02-03T09:19:42;23.20;;;19.80;;
63379;SDS011;53160;55.014;73.156;2023-02-03T09:22:09;17.25;;;15.75;;
63379;SDS011;53160;55.014;73.156;2023-02-03T09:24:35;14.25;;;13.75;;
63379;SDS011;53160;55.014;73.156;2023-02-03T09:27:01;19.00;;;19.00;;
63379;SDS011;53160;55.014;73.156;2023-02-03T09:29:28;14.50;;;14.25;;
63379;SDS011;53160;55.014;73.156;2023-02-03T09:31:55;14.00;;;13.25;;
63379;SDS011;53160;55.014;73.156;2023-02-03T09:34:26;28.40;;;27.20;;
63379;SDS011;53160;55.014;73.156;2023-02-03T09:36:58;23.80;;;19.00;;
63379;SDS011;53160;55.014;73.156;2023-02-03T09:39:34;26.20;;;24.40;;
63379;SDS011;53160;55.014;73.156;2023-02-03T09:42:08;20.20;;;17.40;;
63379;SDS011;53160;55.014;73.156;2023-02-03T09:47:21;23.60;;;18.60;;
63379;SDS011;53160;55.014;73.156;2023-02-03T09:55:00;40.00;;;29.40;;
63379;SDS011;53160;55.014;73.156;2023-02-03T09:57:36;31.60;;;26.20;;
63379;SDS011;53160;55.014;73.156;2023-02-03T10:00:22;28.20;;;20.00;;
63379;SDS011;53160;55.014;73.156;2023-02-03T10:08:08;42.60;;;36.60;;
63379;SDS011;53160;55.014;73.156;2023-02-03T10:10:35;36.00;;;29.80;;
63379;SDS011;53160;55.014;73.156;2023-02-03T10:18:04;31.00;;;25.40;;
63379;SDS011;53160;55.014;73.156;2023-02-03T10:20:37;37.80;;;34.80;;
63379;SDS011;53160;55.014;73.156;2023-02-03T10:23:12;23.60;;;20.20;;
63379;SDS011;53160;55.014;73.156;2023-02-03T10:25:50;29.40;;;24.80;;
63379;SDS011;53160;55.014;73.156;2023-02-03T10:31:27;24.40;;;19.60;;
63379;SDS011;53160;55.014;73.156;2023-02-03T10:34:01;45.60;;;33.80;;
63379;SDS011;53160;55.014;73.156;2023-02-03T10:41:55;43.20;;;38.20;;
63379;SDS011;53160;55.014;73.156;2023-02-03T10:44:21;44.00;;;36.20;;
63379;SDS011;53160;55.014;73.156;2023-02-03T10:46:50;39.80;;;28.60;;
63379;SDS011;53160;55.014;73.156;2023-02-03T10:49:26;43.60;;;31.40;;
63379;SDS011;53160;55.014;73.156;2023-02-03T10:51:54;50.00;;;41.80;;
63379;SDS011;53160;55.014;73.156;2023-02-03T10:57:03;48.00;;;40.00;;
63379;SDS011;53160;55.014;73.156;2023-02-03T10:59:34;45.40;;;38.20;;
63379;SDS011;53160;55.014;73.156;2023-02-03T11:02:35;45.60;;;38.80;;
63379;SDS011;53160;55.014;73.156;2023-02-03T11:05:18;58.20;;;43.00;;
63379;SDS011;53160;55.014;73.156;2023-02-03T11:07:45;60.40;;;43.60;;
63379;SDS011;53160;55.014;73.156;2023-02-03T11:10:30;60.80;;;44.20;;
63379;SDS011;53160;55.014;73.156;2023-02-03T11:13:17;64.20;;;48.20;;
63379;SDS011;53160;55.014;73.156;2023-02-03T11:18:34;50.00;;;42.20;;
63379;SDS011;53160;55.014;73.156;2023-02-03T11:21:06;69.00;;;53.60;;
63379;SDS011;53160;55.014;73.156;2023-02-03T11:23:33;74.60;;;54.60;;
63379;SDS011;53160;55.014;73.156;2023-02-03T11:26:11;63.40;;;48.00;;
63379;SDS011;53160;55.014;73.156;2023-02-03T11:28:42;73.80;;;59.20;;
63379;SDS011;53160;55.014;73.156;2023-02-03T11:31:26;83.80;;;65.80;;
63379;SDS011;53160;55.014;73.156;2023-02-03T11:33:59;70.80;;;55.40;;
63379;SDS011;53160;55.014;73.156;2023-02-03T11:36:36;78.00;;;60.00;;
63379;SDS011;53160;55.014;73.156;2023-02-03T11:39:19;82.00;;;52.40;;
63379;SDS011;53160;55.014;73.156;2023-02-03T11:41:46;78.40;;;58.80;;
63379;SDS011;53160;55.014;73.156;2023-02-03T11:44:24;68.00;;;48.20;;
63379;SDS011;53160;55.014;73.156;2023-02-03T11:46:55;84.40;;;59.00;;
63379;SDS011;53160;55.014;73.156;2023-02-03T11:57:31;76.60;;;55.40;;
63379;SDS011;53160;55.014;73.156;2023-02-03T12:07:58;57.60;;;46.80;;
63379;SDS011;53160;55.014;73.156;2023-02-03T12:16:19;66.80;;;52.00;;
63379;SDS011;53160;55.014;73.156;2023-02-03T12:21:42;64.80;;;46.40;;
63379;SDS011;53160;55.014;73.156;2023-02-03T12:26:46;75.00;;;56.20;;
63379;SDS011;53160;55.014;73.156;2023-02-03T12:29:35;66.60;;;48.00;;
63379;SDS011;53160;55.014;73.156;2023-02-03T12:35:19;62.80;;;47.60;;
63379;SDS011;53160;55.014;73.156;2023-02-03T12:38:04;58.60;;;45.60;;
63379;SDS011;53160;55.014;73.156;2023-02-03T12:43:33;59.00;;;45.80;;
63379;SDS011;53160;55.014;73.156;2023-02-03T12:46:05;65.80;;;51.40;;
63379;SDS011;53160;55.014;73.156;2023-02-03T12:48:55;49.20;;;40.40;;
63379;SDS011;53160;55.014;73.156;2023-02-03T12:51:29;56.20;;;43.80;;
63379;SDS011;53160;55.014;73.156;2023-02-03T12:54:12;55.80;;;41.80;;
63379;SDS011;53160;55.014;73.156;2023-02-03T12:56:44;62.80;;;48.60;;
63379;SDS011;53160;55.014;73.156;2023-02-03T12:59:17;63.80;;;46.00;;
63379;SDS011;53160;55.014;73.156;2023-02-03T13:01:47;54.80;;;44.60;;
63379;SDS011;53160;55.014;73.156;2023-02-03T13:12:36;10.80;;;8.40;;
63379;SDS011;53160;55.014;73.156;2023-02-03T13:17:48;55.20;;;48.20;;
63379;SDS011;53160;55.014;73.156;2023-02-03T13:20:21;66.60;;;51.80;;
63379;SDS011;53160;55.014;73.156;2023-02-03T13:22:47;52.20;;;46.40;;
63379;SDS011;53160;55.014;73.156;2023-02-03T13:25:20;60.60;;;41.80;;
63379;SDS011;53160;55.014;73.156;2023-02-03T13:36:03;64.40;;;45.80;;
63379;SDS011;53160;55.014;73.156;2023-02-03T13:41:26;72.00;;;53.20;;
63379;SDS011;53160;55.014;73.156;2023-02-03T13:44:06;52.60;;;45.40;;
63379;SDS011;53160;55.014;73.156;2023-02-03T13:46:37;59.00;;;46.40;;
63379;SDS011;53160;55.014;73.156;2023-02-03T13:49:09;53.20;;;45.80;;
63379;SDS011;53160;55.014;73.156;2023-02-03T13:51:45;72.60;;;53.20;;
63379;SDS011;53160;55.014;73.156;2023-02-03T13:54:13;64.60;;;45.00;;
63379;SDS011;53160;55.014;73.156;2023-02-03T13:56:52;72.40;;;57.00;;
63379;SDS011;53160;55.014;73.156;2023-02-03T14:04:57;73.60;;;53.60;;
63379;SDS011;53160;55.014;73.156;2023-02-03T14:25:48;56.40;;;48.40;;
63379;SDS011;53160;55.014;73.156;2023-02-03T14:28:48;69.80;;;51.00;;
63379;SDS011;53160;55.014;73.156;2023-02-03T14:31:20;57.40;;;41.60;;
63379;SDS011;53160;55.014;73.156;2023-02-03T14:38:53;62.20;;;48.00;;
63379;SDS011;53160;55.014;73.156;2023-02-03T14:41:35;68.00;;;53.40;;
63379;SDS011;53160;55.014;73.156;2023-02-03T14:44:22;59.00;;;45.20;;
63379;SDS011;53160;55.014;73.156;2023-02-03T14:50:03;58.60;;;46.20;;
63379;SDS011;53160;55.014;73.156;2023-02-03T14:52:46;56.40;;;45.40;;
63379;SDS011;53160;55.014;73.156;2023-02-03T14:55:34;55.40;;;47.20;;
63379;SDS011;53160;55.014;73.156;2023-02-03T14:58:05;49.60;;;41.20;;
63379;SDS011;53160;55.014;73.156;2023-02-03T15:00:32;52.20;;;42.00;;
63379;SDS011;53160;55.014;73.156;2023-02-03T15:03:22;30.80;;;30.20;;
63379;SDS011;53160;55.014;73.156;2023-02-03T15:05:51;52.60;;;37.00;;
63379;SDS011;53160;55.014;73.156;2023-02-03T15:13:47;29.20;;;26.60;;
63379;SDS011;53160;55.014;73.156;2023-02-03T15:16:23;36.20;;;29.60;;
63379;SDS011;53160;55.014;73.156;2023-02-03T15:18:57;30.60;;;26.00;;
63379;SDS011;53160;55.014;73.156;2023-02-03T15:21:24;34.80;;;27.20;;
63379;SDS011;53160;55.014;73.156;2023-02-03T15:23:50;35.60;;;27.40;;
63379;SDS011;53160;55.014;73.156;2023-02-03T15:26:22;42.40;;;32.80;;
63379;SDS011;53160;55.014;73.156;2023-02-03T15:28:59;41.00;;;32.00;;
63379;SDS011;53160;55.014;73.156;2023-02-03T15:31:31;34.20;;;26.40;;
63379;SDS011;53160;55.014;73.156;2023-02-03T15:34:00;44.20;;;35.80;;
63379;SDS011;53160;55.014;73.156;2023-02-03T15:36:50;48.20;;;42.80;;
63379;SDS011;53160;55.014;73.156;2023-02-03T15:42:00;41.20;;;34.00;;
63379;SDS011;53160;55.014;73.156;2023-02-03T15:44:37;35.00;;;32.20;;
63379;SDS011;53160;55.014;73.156;2023-02-03T15:47:37;37.40;;;33.40;;
63379;SDS011;53160;55.014;73.156;2023-02-03T15:50:14;36.80;;;29.20;;
63379;SDS011;53160;55.014;73.156;2023-02-03T15:52:53;38.80;;;31.60;;
63379;SDS011;53160;55.014;73.156;2023-02-03T15:57:51;42.60;;;36.00;;
63379;SDS011;53160;55.014;73.156;2023-02-03T16:02:52;44.60;;;40.40;;
63379;SDS011;53160;55.014;73.156;2023-02-03T16:07:54;43.40;;;34.80;;
63379;SDS011;53160;55.014;73.156;2023-02-03T16:10:32;56.40;;;39.00;;
63379;SDS011;53160;55.014;73.156;2023-02-03T16:15:55;44.80;;;39.80;;
63379;SDS011;53160;55.014;73.156;2023-02-03T16:18:33;57.20;;;45.20;;
63379;SDS011;53160;55.014;73.156;2023-02-03T16:21:01;45.20;;;39.60;;
63379;SDS011;53160;55.014;73.156;2023-02-03T16:23:28;44.20;;;39.80;;
63379;SDS011;53160;55.014;73.156;2023-02-03T16:26:03;45.20;;;37.00;;
63379;SDS011;53160;55.014;73.156;2023-02-03T16:28:34;56.60;;;45.00;;
63379;SDS011;53160;55.014;73.156;2023-02-03T16:31:19;46.40;;;37.80;;
63379;SDS011;53160;55.014;73.156;2023-02-03T16:34:17;54.40;;;38.00;;
63379;SDS011;53160;55.014;73.156;2023-02-03T16:37:11;49.40;;;33.00;;
63379;SDS011;53160;55.014;73.156;2023-02-03T16:39:56;44.20;;;41.80;;
63379;SDS011;53160;55.014;73.156;2023-02-03T16:42:47;45.60;;;44.40;;
63379;SDS011;53160;55.014;73.156;2023-02-03T16:45:41;46.20;;;42.60;;
63379;SDS011;53160;55.014;73.156;2023-02-03T16:48:26;45.60;;;40.60;;
63379;SDS011;53160;55.014;73.156;2023-02-03T16:51:12;55.40;;;44.60;;
63379;SDS011;53160;55.014;73.156;2023-02-03T16:53:41;63.60;;;46.20;;
63379;SDS011;53160;55.014;73.156;2023-02-03T16:56:09;48.00;;;40.80;;
63379;SDS011;53160;55.014;73.156;2023-02-03T16:58:40;50.80;;;42.80;;
63379;SDS011;53160;55.014;73.156;2023-02-03T17:01:09;39.20;;;35.00;;
63379;SDS011;53160;55.014;73.156;2023-02-03T17:03:46;37.40;;;31.00;;
63379;SDS011;53160;55.014;73.156;2023-02-03T17:06:23;45.60;;;34.00;;
63379;SDS011;53160;55.014;73.156;2023-02-03T17:08:54;44.00;;;37.40;;
63379;SDS011;53160;55.014;73.156;2023-02-03T17:11:25;37.60;;;33.00;;